Time;durP1;ratioP1;P1;durP2;ratioP2;P2;SDS_P1;SDS_P2;PMS_P1;PMS_P2;Temp;Humidity;BMP_temperature;BMP_pressure;BME280_temperature;BME280_humidity;BME280_pressure;Samples;Min_cycle;Max_cycle;Signal;HPM_P1;HPM_P2
2022/05/30 00:02:10;;;;;;;0.10;0.10;;;;;;;;;;5073863;28;20044;-85
2022/05/30 00:04:37;;;;;;;0.10;0.10;;;;;;;;;;5082100;28;20046;-86
2022/05/30 00:07:04;;;;;;;0.10;0.10;;;;;;;;;;5083694;28;20547;-84
2022/05/30 00:09:30;;;;;;;0.10;0.10;;;;;;;;;;5089684;28;20051;-86
2022/05/30 00:11:56;;;;;;;0.20;0.20;;;;;;;;;;5041000;28;20079;-85
2022/05/30 00:14:22;;;;;;;0.10;0.10;;;;;;;;;;5078256;28;20386;-86
2022/05/30 00:16:48;;;;;;;0.10;0.10;;;;;;;;;;5053629;28;20397;-86
2022/05/30 00:19:14;;;;;;;0.10;0.10;;;;;;;;;;5090484;28;20125;-85
2022/05/30 00:21:41;;;;;;;0.10;0.10;;;;;;;;;;5078354;28;20044;-84
2022/05/30 00:24:07;;;;;;;0.10;0.10;;;;;;;;;;5059661;28;20062;-85
2022/05/30 00:26:33;;;;;;;0.10;0.10;;;;;;;;;;5061174;28;20726;-85
2022/05/30 00:28:59;;;;;;;0.10;0.10;;;;;;;;;;5085716;28;20047;-86
2022/05/30 00:31:25;;;;;;;0.10;0.10;;;;;;;;;;5067469;28;20050;-87
2022/05/30 00:33:51;;;;;;;0.10;0.10;;;;;;;;;;5053462;28;20051;-85
2022/05/30 00:36:18;;;;;;;0.10;0.10;;;;;;;;;;5076089;28;20094;-85
2022/05/30 00:38:44;;;;;;;0.10;0.10;;;;;;;;;;5078893;28;20204;-85
2022/05/30 00:41:10;;;;;;;0.10;0.10;;;;;;;;;;5084913;28;20072;-85
2022/05/30 00:43:37;;;;;;;0.10;0.10;;;;;;;;;;5055540;28;20041;-85
2022/05/30 00:46:11;;;;;;;0.10;0.10;;;;;;;;;;5079218;28;20048;-85
2022/05/30 00:48:40;;;;;;;0.28;0.28;;;;;;;;;;5069687;28;20915;-85
2022/05/30 00:51:08;;;;;;;0.10;0.10;;;;;;;;;;5070237;28;20044;-85
2022/05/30 00:53:34;;;;;;;0.10;0.10;;;;;;;;;;5070928;28;20044;-85
2022/05/30 00:56:02;;;;;;;0.10;0.10;;;;;;;;;;5084204;28;20698;-84
2022/05/30 00:58:30;;;;;;;0.10;0.10;;;;;;;;;;5070803;28;20054;-84
2022/05/30 01:00:56;;;;;;;0.10;0.10;;;;;;;;;;5089200;28;20131;-84
2022/05/30 01:08:53;;;;;;;0.10;0.10;;;;;;;;;;5080253;28;20052;-84
2022/05/30 01:11:20;;;;;;;0.10;0.10;;;;;;;;;;5075447;28;20120;-85
2022/05/30 01:13:46;;;;;;;0.10;0.10;;;;;;;;;;5059291;28;20129;-85
2022/05/30 01:16:12;;;;;;;0.10;0.10;;;;;;;;;;5062904;28;20039;-85
2022/05/30 01:18:41;;;;;;;0.10;0.10;;;;;;;;;;5058609;28;20101;-85
2022/05/30 01:21:21;;;;;;;0.10;0.10;;;;;;;;;;5064938;28;20059;-85
2022/05/30 01:23:59;;;;;;;0.10;0.10;;;;;;;;;;5067872;28;20040;-85
2022/05/30 01:26:38;;;;;;;0.10;0.10;;;;;;;;;;5071907;28;20534;-86
2022/05/30 01:29:04;;;;;;;0.00;0.00;;;;;;;;;;5066700;28;20044;-85
2022/05/30 01:31:31;;;;;;;0.10;0.10;;;;;;;;;;5071313;28;20043;-85
2022/05/30 01:33:57;;;;;;;0.10;0.10;;;;;;;;;;5065472;28;20055;-86
2022/05/30 01:36:24;;;;;;;0.10;0.10;;;;;;;;;;5067455;28;20154;-85
2022/05/30 01:38:50;;;;;;;0.10;0.10;;;;;;;;;;5072954;28;20049;-85
2022/05/30 01:41:17;;;;;;;0.10;0.10;;;;;;;;;;5067886;28;20629;-84
2022/05/30 01:43:43;;;;;;;0.10;0.10;;;;;;;;;;5085844;28;20039;-84
2022/05/30 01:46:12;;;;;;;0.00;0.00;;;;;;;;;;5059263;28;20032;-85
2022/05/30 01:48:38;;;;;;;0.10;0.10;;;;;;;;;;5069898;28;20048;-86
2022/05/30 01:51:04;;;;;;;0.10;0.10;;;;;;;;;;5075659;28;20054;-84
2022/05/30 01:53:30;;;;;;;0.10;0.10;;;;;;;;;;5085240;28;20039;-84
2022/05/30 01:55:56;;;;;;;0.10;0.10;;;;;;;;;;5074285;28;20497;-86
2022/05/30 01:58:22;;;;;;;0.10;0.10;;;;;;;;;;5065994;28;20036;-85
2022/05/30 02:00:49;;;;;;;0.10;0.10;;;;;;;;;;5078577;28;20067;-86
2022/05/30 02:03:15;;;;;;;0.10;0.10;;;;;;;;;;5093458;28;20518;-84
2022/05/30 02:05:41;;;;;;;0.10;0.10;;;;;;;;;;5069797;28;20050;-85
2022/05/30 02:08:08;;;;;;;0.10;0.10;;;;;;;;;;5078196;28;20106;-86
2022/05/30 02:10:34;;;;;;;0.10;0.10;;;;;;;;;;5075939;28;20040;-86
2022/05/30 02:13:01;;;;;;;0.10;0.10;;;;;;;;;;5073077;28;20058;-85
2022/05/30 02:15:27;;;;;;;0.10;0.10;;;;;;;;;;5091592;28;20513;-86
2022/05/30 02:17:54;;;;;;;0.10;0.10;;;;;;;;;;5077200;28;20043;-85
2022/05/30 02:20:20;;;;;;;0.10;0.10;;;;;;;;;;5070677;28;20056;-85
2022/05/30 02:22:47;;;;;;;0.10;0.10;;;;;;;;;;5065864;28;20431;-85
2022/05/30 02:25:13;;;;;;;0.10;0.10;;;;;;;;;;5071473;28;20445;-86
2022/05/30 02:27:41;;;;;;;0.10;0.10;;;;;;;;;;5066834;28;20127;-87
2022/05/30 02:30:08;;;;;;;0.10;0.10;;;;;;;;;;5089104;28;20055;-86
2022/05/30 02:32:34;;;;;;;0.10;0.10;;;;;;;;;;5078626;28;20071;-86
2022/05/30 02:37:44;;;;;;;0.10;0.10;;;;;;;;;;5057264;28;20171;-87
2022/05/30 02:40:10;;;;;;;0.10;0.10;;;;;;;;;;5064522;28;20070;-85
2022/05/30 02:42:36;;;;;;;0.10;0.10;;;;;;;;;;5054315;28;20510;-85
2022/05/30 02:45:03;;;;;;;0.10;0.10;;;;;;;;;;5057976;28;20056;-86
2022/05/30 02:47:29;;;;;;;0.10;0.10;;;;;;;;;;5072375;28;20040;-88
2022/05/30 02:49:55;;;;;;;0.10;0.10;;;;;;;;;;5066300;28;20052;-85
2022/05/30 02:52:21;;;;;;;0.10;0.10;;;;;;;;;;5078518;28;20040;-86
2022/05/30 02:54:47;;;;;;;0.10;0.10;;;;;;;;;;5062362;28;20400;-85
2022/05/30 02:57:13;;;;;;;0.10;0.10;;;;;;;;;;5060794;28;20142;-84
2022/05/30 02:59:39;;;;;;;0.10;0.10;;;;;;;;;;5061468;28;20073;-86
2022/05/30 03:02:05;;;;;;;0.10;0.10;;;;;;;;;;5054050;28;20055;-87
2022/05/30 03:04:31;;;;;;;0.10;0.10;;;;;;;;;;5077003;28;20047;-85
2022/05/30 03:06:58;;;;;;;0.10;0.10;;;;;;;;;;5076999;28;20124;-86
2022/05/30 03:09:24;;;;;;;0.10;0.10;;;;;;;;;;5083251;28;20044;-85
2022/05/30 03:11:50;;;;;;;0.10;0.10;;;;;;;;;;5052531;28;20044;-85
2022/05/30 03:14:16;;;;;;;0.10;0.10;;;;;;;;;;5067696;28;20548;-86
2022/05/30 03:16:42;;;;;;;0.10;0.10;;;;;;;;;;5052433;28;20047;-86
2022/05/30 03:19:08;;;;;;;0.10;0.10;;;;;;;;;;5055670;28;20048;-85
2022/05/30 03:21:34;;;;;;;0.10;0.10;;;;;;;;;;5050899;28;20121;-86
2022/05/30 03:24:00;;;;;;;0.10;0.10;;;;;;;;;;5085671;28;20071;-87
2022/05/30 03:26:26;;;;;;;0.10;0.10;;;;;;;;;;5079491;28;20506;-86
2022/05/30 03:28:52;;;;;;;0.10;0.10;;;;;;;;;;5089262;28;20090;-86
2022/05/30 03:31:18;;;;;;;0.10;0.10;;;;;;;;;;5058520;28;20135;-85
2022/05/30 03:33:44;;;;;;;0.10;0.10;;;;;;;;;;5086264;28;20071;-86
2022/05/30 03:36:12;;;;;;;0.10;0.10;;;;;;;;;;5081724;28;20102;-85
2022/05/30 03:38:38;;;;;;;0.10;0.10;;;;;;;;;;5063236;28;20044;-85
2022/05/30 03:41:04;;;;;;;0.10;0.10;;;;;;;;;;5088481;28;20044;-86
2022/05/30 03:43:30;;;;;;;0.10;0.10;;;;;;;;;;5071980;28;20082;-86
2022/05/30 03:45:56;;;;;;;0.10;0.10;;;;;;;;;;5058730;28;20045;-86
2022/05/30 03:48:23;;;;;;;0.10;0.10;;;;;;;;;;5080959;28;20083;-87
2022/05/30 03:50:49;;;;;;;0.10;0.10;;;;;;;;;;5090795;28;20048;-87
2022/05/30 03:53:16;;;;;;;0.10;0.10;;;;;;;;;;5077514;28;20054;-86
2022/05/30 03:55:43;;;;;;;0.10;0.10;;;;;;;;;;5067747;28;20056;-86
2022/05/30 03:58:10;;;;;;;0.10;0.10;;;;;;;;;;5069407;28;20048;-85
2022/05/30 04:00:38;;;;;;;0.10;0.10;;;;;;;;;;5092964;28;20044;-86
2022/05/30 04:03:04;;;;;;;0.10;0.10;;;;;;;;;;5079230;28;20092;-86
2022/05/30 04:05:30;;;;;;;0.10;0.10;;;;;;;;;;5047048;28;20127;-87
2022/05/30 04:07:57;;;;;;;0.10;0.10;;;;;;;;;;5062687;28;20079;-86
2022/05/30 04:10:24;;;;;;;0.10;0.10;;;;;;;;;;5056805;28;20048;-87
2022/05/30 04:12:50;;;;;;;0.10;0.10;;;;;;;;;;5074578;28;20070;-88
2022/05/30 04:15:23;;;;;;;0.10;0.10;;;;;;;;;;5070011;28;20044;-81
2022/05/30 04:17:49;;;;;;;0.10;0.10;;;;;;;;;;5074211;28;20781;-87
2022/05/30 04:20:16;;;;;;;0.10;0.10;;;;;;;;;;5074364;28;20073;-86
2022/05/30 04:22:44;;;;;;;0.10;0.10;;;;;;;;;;5081769;28;20051;-87
2022/05/30 04:25:10;;;;;;;0.10;0.10;;;;;;;;;;5077050;28;20044;-87
2022/05/30 04:27:37;;;;;;;0.10;0.10;;;;;;;;;;5097007;28;20172;-85
2022/05/30 04:30:04;;;;;;;0.10;0.10;;;;;;;;;;5082741;28;20102;-85
2022/05/30 04:32:30;;;;;;;0.10;0.10;;;;;;;;;;5100596;28;20051;-86
2022/05/30 04:34:56;;;;;;;0.10;0.10;;;;;;;;;;5084828;28;20399;-87
2022/05/30 04:37:22;;;;;;;0.10;0.10;;;;;;;;;;5073935;28;20563;-87
2022/05/30 04:39:48;;;;;;;0.10;0.10;;;;;;;;;;5071064;28;20052;-86
2022/05/30 04:42:14;;;;;;;0.05;0.05;;;;;;;;;;5094360;28;20128;-87
2022/05/30 04:44:40;;;;;;;0.10;0.10;;;;;;;;;;5086841;28;20044;-84
2022/05/30 04:47:09;;;;;;;0.10;0.10;;;;;;;;;;5064690;28;20049;-84
2022/05/30 04:49:35;;;;;;;0.10;0.10;;;;;;;;;;5058676;28;20707;-84
2022/05/30 04:52:01;;;;;;;0.57;0.57;;;;;;;;;;5077905;28;20152;-83
2022/05/30 04:54:27;;;;;;;0.10;0.10;;;;;;;;;;5043983;28;20499;-86
2022/05/30 04:56:53;;;;;;;0.10;0.10;;;;;;;;;;5076258;28;20064;-82
2022/05/30 04:59:19;;;;;;;0.10;0.10;;;;;;;;;;5072104;28;20056;-83
2022/05/30 05:01:45;;;;;;;0.10;0.10;;;;;;;;;;5085837;28;20079;-85
2022/05/30 05:04:11;;;;;;;0.10;0.10;;;;;;;;;;5057602;28;20051;-82
2022/05/30 05:06:38;;;;;;;0.10;0.10;;;;;;;;;;5055892;28;20040;-82
2022/05/30 05:09:05;;;;;;;0.10;0.10;;;;;;;;;;5082685;28;20048;-84
2022/05/30 05:11:35;;;;;;;0.10;0.10;;;;;;;;;;5074055;28;20043;-83
2022/05/30 05:14:01;;;;;;;0.10;0.10;;;;;;;;;;5077909;28;20047;-83
2022/05/30 05:16:29;;;;;;;0.10;0.10;;;;;;;;;;5072033;28;20048;-84
2022/05/30 05:18:55;;;;;;;0.38;0.38;;;;;;;;;;5072347;28;20060;-83
2022/05/30 05:21:24;;;;;;;0.10;0.10;;;;;;;;;;5073067;28;20052;-83
2022/05/30 05:23:51;;;;;;;0.00;0.00;;;;;;;;;;5065831;28;20079;-88
2022/05/30 05:26:17;;;;;;;0.10;0.10;;;;;;;;;;5097018;28;20052;-86
2022/05/30 05:28:44;;;;;;;0.10;0.10;;;;;;;;;;5092293;28;20048;-82
2022/05/30 05:31:10;;;;;;;;;;;;;;;;;;5072223;28;20055;-81
2022/05/30 05:33:36;;;;;;;;;;;;;;;;;;5083643;28;19924;-80
2022/05/30 05:36:02;;;;;;;;;;;;;;;;;;5088387;28;19927;-80
2022/05/30 05:38:28;;;;;;;;;;;;;;;;;;5077657;28;19965;-78
2022/05/30 05:40:54;;;;;;;;;;;;;;;;;;5079688;28;20303;-77
2022/05/30 05:43:20;;;;;;;;;;;;;;;;;;5083813;28;20267;-81
2022/05/30 05:45:46;;;;;;;;;;;;;;;;;;5078667;28;19919;-76
2022/05/30 05:48:12;;;;;;;;;;;;;;;;;;5081712;28;19960;-81
2022/05/30 05:50:39;;;;;;;;;;;;;;;;;;5080734;28;19955;-81
2022/05/30 05:53:05;;;;;;;;;;;;;;;;;;5095620;28;19928;-80
2022/05/30 05:55:30;;;;;;;;;;;;;;;;;;5072932;28;19933;-77
2022/05/30 05:57:56;;;;;;;;;;;;;;;;;;5095586;28;20378;-79
2022/05/30 06:00:22;;;;;;;;;;;;;;;;;;5088664;28;20418;-82
2022/05/30 06:02:48;;;;;;;;;;;;;;;;;;5069946;28;19920;-80
2022/05/30 06:05:14;;;;;;;;;;;;;;;;;;5066631;28;19920;-81
2022/05/30 06:07:40;;;;;;;;;;;;;;;;;;5114418;27;20015;-74
2022/05/30 06:10:06;;;;;;;;;;;;;;;;;;5088093;28;19988;-73
2022/05/30 06:12:32;;;;;;;;;;;;;;;;;;5077796;28;19924;-75
2022/05/30 06:14:58;;;;;;;;;;;;;;;;;;5088107;28;19920;-75
2022/05/30 06:17:24;;;;;;;;;;;;;;;;;;5077652;28;19973;-75
2022/05/30 06:19:50;;;;;;;;;;;;;;;;;;5089247;28;20020;-75
2022/05/30 06:22:16;;;;;;;;;;;;;;;;;;5080419;28;19927;-75
2022/05/30 06:24:42;;;;;;;;;;;;;;;;;;5086142;28;19924;-74
2022/05/30 06:27:10;;;;;;;;;;;;;;;;;;5083661;28;19921;-74
2022/05/30 06:29:36;;;;;;;;;;;;;;;;;;5110443;27;19924;-73
2022/05/30 06:32:02;;;;;;;;;;;;;;;;;;5092789;28;19926;-76
2022/05/30 06:34:28;;;;;;;;;;;;;;;;;;5090757;28;19966;-75
2022/05/30 06:36:54;;;;;;;;;;;;;;;;;;5088080;28;19919;-77
2022/05/30 06:39:20;;;;;;;;;;;;;;;;;;5067805;28;19960;-75
2022/05/30 06:41:48;;;;;;;;;;;;;;;;;;5083616;28;20043;-76
2022/05/30 06:44:14;;;;;;;;;;;;;;;;;;5080185;28;20333;-76
2022/05/30 06:46:40;;;;;;;;;;;;;;;;;;5083257;28;19965;-75
2022/05/30 06:49:06;;;;;;;;;;;;;;;;;;5086622;28;19927;-75
2022/05/30 06:51:32;;;;;;;;;;;;;;;;;;5077273;28;19964;-75
2022/05/30 06:53:58;;;;;;;;;;;;;;;;;;5094909;28;20385;-75
2022/05/30 06:56:24;;;;;;;;;;;;;;;;;;5105286;27;19965;-75
2022/05/30 06:58:50;;;;;;;;;;;;;;;;;;5104544;27;19920;-75
2022/05/30 07:01:16;;;;;;;;;;;;;;;;;;5107499;28;20139;-76
2022/05/30 07:03:44;;;;;;;;;;;;;;;;;;5089988;28;19923;-76
2022/05/30 07:06:10;;;;;;;;;;;;;;;;;;5118270;27;19920;-75
2022/05/30 07:08:36;;;;;;;;;;;;;;;;;;5097524;28;20002;-75
2022/05/30 07:11:02;;;;;;;;;;;;;;;;;;5101886;28;20061;-75
2022/05/30 07:13:28;;;;;;;;;;;;;;;;;;5088128;28;19942;-75
2022/05/30 07:15:54;;;;;;;;;;;;;;;;;;5090941;28;19964;-76
2022/05/30 07:18:20;;;;;;;;;;;;;;;;;;5102930;28;20009;-76
2022/05/30 07:20:46;;;;;;;;;;;;;;;;;;5075553;28;19938;-75
2022/05/30 07:23:13;;;;;;;;;;;;;;;;;;5096743;28;19927;-75
2022/05/30 07:25:39;;;;;;;;;;;;;;;;;;5084493;28;20378;-75
2022/05/30 07:28:05;;;;;;;;;;;;;;;;;;5108285;28;19927;-76
2022/05/30 07:30:31;;;;;;;;;;;;;;;;;;5106042;28;19920;-76
2022/05/30 07:32:57;;;;;;;;;;;;;;;;;;5083871;28;20370;-75
2022/05/30 07:35:23;;;;;;;;;;;;;;;;;;5085602;28;19974;-75
2022/05/30 07:37:49;;;;;;;;;;;;;;;;;;5084549;28;19919;-76
2022/05/30 07:40:14;;;;;;;;;;;;;;;;;;5096534;28;19924;-75
2022/05/30 07:42:41;;;;;;;;;;;;;;;;;;5076330;28;19932;-75
2022/05/30 07:45:07;;;;;;;;;;;;;;;;;;5116597;28;20431;-75
2022/05/30 07:47:33;;;;;;;;;;;;;;;;;;5091351;28;19919;-76
2022/05/30 07:50:02;;;;;;;;;;;;;;;;;;5107805;28;19927;-75
2022/05/30 07:52:28;;;;;;;;;;;;;;;;;;5074229;28;19930;-75
2022/05/30 07:54:55;;;;;;;;;;;;;;;;;;5117877;28;20014;-75
2022/05/30 07:57:50;;;;;;;;;;;;;;;;;;5117132;28;19924;-73
2022/05/30 08:00:07;;;;;;;;;;;;;;;;;;5091636;28;19927;-76
2022/05/30 08:02:33;;;;;;;;;;;;;;;;;;5093257;28;19920;-78
2022/05/30 08:04:59;;;;;;;;;;;;;;;;;;5087308;28;20008;-76
2022/05/30 08:07:25;;;;;;;;;;;;;;;;;;5087296;28;19920;-73
2022/05/30 08:09:51;;;;;;;;;;;;;;;;;;5107756;28;19927;-75
2022/05/30 08:12:17;;;;;;;;;;;;;;;;;;5076595;28;19947;-80
2022/05/30 08:14:43;;;;;;;;;;;;;;;;;;5082038;28;19986;-78
2022/05/30 08:17:09;;;;;;;;;;;;;;;;;;5103689;27;19927;-78
2022/05/30 08:19:35;;;;;;;;;;;;;;;;;;5100458;27;19964;-78
2022/05/30 08:22:01;;;;;;;;;;;;;;;;;;5120283;27;19920;-77
2022/05/30 08:24:28;;;;;;;;;;;;;;;;;;5112544;27;19933;-78
2022/05/30 08:26:54;;;;;;;;;;;;;;;;;;5097300;28;19927;-81
2022/05/30 08:29:20;;;;;;;;;;;;;;;;;;5110746;27;19919;-79
2022/05/30 08:31:46;;;;;;;;;;;;;;;;;;5087941;28;19969;-80
2022/05/30 08:34:11;;;;;;;;;;;;;;;;;;5097833;28;19920;-80
2022/05/30 08:36:37;;;;;;;;;;;;;;;;;;5092112;27;19923;-79
2022/05/30 08:41:48;;;;;;;;;;;;;;;;;;5111314;28;19920;-79
2022/05/30 08:44:16;;;;;;;;;;;;;;;;;;5086082;28;19924;-81
2022/05/30 08:46:42;;;;;;;;;;;;;;;;;;5084491;28;20363;-81
2022/05/30 08:49:09;;;;;;;;;;;;;;;;;;5097096;28;20019;-81
2022/05/30 08:51:35;;;;;;;;;;;;;;;;;;5077019;28;19927;-82
2022/05/30 08:54:01;;;;;;;;;;;;;;;;;;5106946;28;19920;-78
2022/05/30 08:56:27;;;;;;;;;;;;;;;;;;5097513;27;20089;-80
2022/05/30 08:58:53;;;;;;;;;;;;;;;;;;5101425;27;19920;-81
2022/05/30 09:01:19;;;;;;;;;;;;;;;;;;5078294;28;19966;-80
2022/05/30 09:04:07;;;;;;;;;;;;;;;;;;5108735;27;20415;-82
2022/05/30 09:06:31;;;;;;;;;;;;;;;;;;5086291;28;20353;-84
2022/05/30 09:08:57;;;;;;;;;;;;;;;;;;5100639;28;20011;-76
2022/05/30 09:11:23;;;;;;;;;;;;;;;;;;5074150;28;20002;-77
2022/05/30 09:13:50;;;;;;;;;;;;;;;;;;5076208;28;19924;-79
2022/05/30 09:16:16;;;;;;;;;;;;;;;;;;5103392;28;19923;-81
2022/05/30 09:18:44;;;;;;;;;;;;;;;;;;5097458;28;19931;-78
2022/05/30 09:21:10;;;;;;;;;;;;;;;;;;5076576;28;20385;-76
2022/05/30 09:23:36;;;;;;;;;;;;;;;;;;5114809;27;19923;-74
2022/05/30 09:26:07;;;;;;;;;;;;;;;;;;5086896;28;19920;-78
2022/05/30 09:28:33;;;;;;;;;;;;;;;;;;5083288;27;20348;-78
2022/05/30 09:30:59;;;;;;;;;;;;;;;;;;5090480;28;19969;-77
2022/05/30 09:33:25;;;;;;;;;;;;;;;;;;5081588;27;19955;-76
2022/05/30 09:35:51;;;;;;;;;;;;;;;;;;5117655;27;19919;-76
2022/05/30 09:38:16;;;;;;;;;;;;;;;;;;5116120;27;19969;-77
2022/05/30 09:40:42;;;;;;;;;;;;;;;;;;5093706;28;19998;-75
2022/05/30 09:43:10;;;;;;;;;;;;;;;;;;5095366;28;19927;-74
2022/05/30 09:45:36;;;;;;;;;;;;;;;;;;5080279;27;19975;-75
2022/05/30 09:48:02;;;;;;;;;;;;;;;;;;5086531;28;19931;-74
2022/05/30 09:50:28;;;;;;;;;;;;;;;;;;5109522;28;19927;-74
2022/05/30 09:52:54;;;;;;;;;;;;;;;;;;5105302;27;19926;-77
2022/05/30 09:55:20;;;;;;;;;;;;;;;;;;5093965;28;19961;-75
2022/05/30 09:57:46;;;;;;;;;;;;;;;;;;5111462;27;19919;-74
2022/05/30 10:00:13;;;;;;;;;;;;;;;;;;5111366;27;20331;-73
2022/05/30 10:02:38;;;;;;;;;;;;;;;;;;5098577;28;19927;-72
2022/05/30 10:05:04;;;;;;;;;;;;;;;;;;5097040;28;19920;-74
2022/05/30 10:07:32;;;;;;;;;;;;;;;;;;5095823;27;19919;-75
2022/05/30 10:09:58;;;;;;;;;;;;;;;;;;5104912;27;19919;-74
2022/05/30 10:12:26;;;;;;;;;;;;;;;;;;5093086;28;19996;-75
2022/05/30 10:14:52;;;;;;;;;;;;;;;;;;5075641;28;19930;-74
2022/05/30 10:17:18;;;;;;;;;;;;;;;;;;5093048;27;19927;-74
2022/05/30 10:19:43;;;;;;;;;;;;;;;;;;5108212;27;19920;-73
2022/05/30 10:30:23;;;;;;;;;;;;;;;;;;5095092;27;19964;-76
2022/05/30 10:32:49;;;;;;;;;;;;;;;;;;5113925;27;19920;-74
2022/05/30 10:35:16;;;;;;;;;;;;;;;;;;5093345;28;19927;-74
2022/05/30 10:37:42;;;;;;;;;;;;;;;;;;5108729;28;19924;-74
2022/05/30 10:40:08;;;;;;;;;;;;;;;;;;5115713;27;19920;-72
2022/05/30 10:42:34;;;;;;;;;;;;;;;;;;5094038;28;19965;-74
2022/05/30 10:45:00;;;;;;;;;;;;;;;;;;5090019;28;20336;-74
2022/05/30 10:47:26;;;;;;;;;;;;;;;;;;5110416;28;20354;-74
2022/05/30 10:49:52;;;;;;;;;;;;;;;;;;5097095;28;20327;-74
2022/05/30 10:52:18;;;;;;;;;;;;;;;;;;5127689;27;19919;-74
2022/05/30 10:54:44;;;;;;;;;;;;;;;;;;5101618;27;19955;-74
2022/05/30 10:57:12;;;;;;;;;;;;;;;;;;5095320;28;20412;-74
2022/05/30 10:59:37;;;;;;;;;;;;;;;;;;5091615;28;19928;-74
2022/05/30 11:02:03;;;;;;;;;;;;;;;;;;5111841;27;19949;-74
2022/05/30 11:04:29;;;;;;;;;;;;;;;;;;5105378;28;19924;-74
2022/05/30 11:06:55;;;;;;;;;;;;;;;;;;5110751;28;19977;-74
2022/05/30 11:09:21;;;;;;;;;;;;;;;;;;5092879;28;19977;-74
2022/05/30 11:11:48;;;;;;;;;;;;;;;;;;5110708;28;20018;-75
2022/05/30 11:14:14;;;;;;;;;;;;;;;;;;5102095;28;20374;-74
2022/05/30 11:16:40;;;;;;;;;;;;;;;;;;5109793;28;20018;-74
2022/05/30 11:19:07;;;;;;;;;;;;;;;;;;5097949;28;19931;-74
2022/05/30 11:21:33;;;;;;;;;;;;;;;;;;5077307;28;19934;-74
2022/05/30 11:23:59;;;;;;;;;;;;;;;;;;5102053;28;20293;-75
2022/05/30 11:26:25;;;;;;;;;;;;;;;;;;5105253;28;19963;-75
2022/05/30 11:28:51;;;;;;;;;;;;;;;;;;5093182;28;19971;-75
2022/05/30 11:31:17;;;;;;;;;;;;;;;;;;5106874;28;20136;-75
2022/05/30 11:33:44;;;;;;;;;;;;;;;;;;5102588;28;20023;-72
2022/05/30 11:36:10;;;;;;;;;;;;;;;;;;5077415;28;20374;-73
2022/05/30 11:38:36;;;;;;;;;;;;;;;;;;5098022;28;19943;-73
2022/05/30 11:41:02;;;;;;;;;;;;;;;;;;5101113;28;20017;-72
2022/05/30 11:43:28;;;;;;;;;;;;;;;;;;5109708;28;20360;-75
2022/05/30 11:45:54;;;;;;;;;;;;;;;;;;5105652;28;20089;-74
2022/05/30 11:48:20;;;;;;;;;;;;;;;;;;5121271;28;19931;-75
2022/05/30 11:50:47;;;;;;;;;;;;;;;;;;5110929;27;19928;-74
2022/05/30 11:53:13;;;;;;;;;;;;;;;;;;5102158;27;19920;-74
2022/05/30 11:55:41;;;;;;;;;;;;;;;;;;5098981;28;20432;-74
2022/05/30 11:58:07;;;;;;;;;;;;;;;;;;5127871;27;20251;-73
2022/05/30 12:00:33;;;;;;;;;;;;;;;;;;5095034;28;20329;-74
2022/05/30 12:02:59;;;;;;;;;;;;;;;;;;5104546;28;19925;-73
2022/05/30 12:05:25;;;;;;;;;;;;;;;;;;5097511;28;19966;-74
2022/05/30 12:07:51;;;;;;;;;;;;;;;;;;5119618;27;20162;-74
2022/05/30 12:10:17;;;;;;;;;;;;;;;;;;5095672;28;19977;-74
2022/05/30 12:12:43;;;;;;;;;;;;;;;;;;5106641;27;20325;-74
2022/05/30 12:15:09;;;;;;;;;;;;;;;;;;5109087;27;19966;-74
2022/05/30 12:17:35;;;;;;;;;;;;;;;;;;5118527;27;19938;-74
2022/05/30 12:25:30;;;;;;;;;;;;;;;;;;5117753;27;19923;-74
2022/05/30 12:27:56;;;;;;;;;;;;;;;;;;5125503;27;19924;-74
2022/05/30 12:30:22;;;;;;;;;;;;;;;;;;5114847;27;19935;-74
2022/05/30 12:32:48;;;;;;;;;;;;;;;;;;5127560;27;19923;-75
2022/05/30 12:35:15;;;;;;;;;;;;;;;;;;5115123;27;19928;-74
2022/05/30 12:37:44;;;;;;;;;;;;;;;;;;5116105;27;20355;-74
2022/05/30 12:40:11;;;;;;;;;;;;;;;;;;5096994;28;19931;-75
2022/05/30 12:42:42;;;;;;;;;;;;;;;;;;5126095;27;20366;-74
2022/05/30 12:45:08;;;;;;;;;;;;;;;;;;5098192;27;19978;-74
2022/05/30 12:47:34;;;;;;;;;;;;;;;;;;5093049;28;19967;-73
2022/05/30 12:50:00;;;;;;;;;;;;;;;;;;5094744;28;20386;-74
2022/05/30 12:52:26;;;;;;;;;;;;;;;;;;5115822;27;19973;-74
2022/05/30 12:54:52;;;;;;;;;;;;;;;;;;5110719;28;19924;-74
2022/05/30 12:57:18;;;;;;;;;;;;;;;;;;5121934;27;19972;-74
2022/05/30 12:59:44;;;;;;;;;;;;;;;;;;5099989;27;19928;-74
2022/05/30 13:02:11;;;;;;;;;;;;;;;;;;5109752;27;20388;-73
2022/05/30 13:04:37;;;;;;;;;;;;;;;;;;5104481;27;19931;-75
2022/05/30 13:07:04;;;;;;;;;;;;;;;;;;5116852;27;19923;-73
2022/05/30 13:09:33;;;;;;;;;;;;;;;;;;5107865;27;20076;-74
2022/05/30 13:11:59;;;;;;;;;;;;;;;;;;5112096;27;20017;-76
2022/05/30 13:14:25;;;;;;;;;;;;;;;;;;5109328;27;20438;-75
2022/05/30 13:16:51;;;;;;;;;;;;;;;;;;5105209;27;19982;-76
2022/05/30 13:19:17;;;;;;;;;;;;;;;;;;5101003;27;19934;-75
2022/05/30 13:21:43;;;;;;;;;;;;;;;;;;5103871;27;19932;-76
2022/05/30 13:24:09;;;;;;;;;;;;;;;;;;5115231;27;19924;-75
2022/05/30 13:26:35;;;;;;;;;;;;;;;;;;5100472;27;19934;-74
2022/05/30 13:29:01;;;;;;;;;;;;;;;;;;5106556;27;19924;-75
2022/05/30 13:31:27;;;;;;;;;;;;;;;;;;5072186;28;20238;-74
2022/05/30 13:33:53;;;;;;;;;;;;;;;;;;5084870;27;19924;-78
2022/05/30 13:36:19;;;;;;;;;;;;;;;;;;5120455;27;20010;-76
2022/05/30 13:38:45;;;;;;;;;;;;;;;;;;5081494;28;19924;-76
2022/05/30 13:41:11;;;;;;;;;;;;;;;;;;5102526;28;19990;-77
2022/05/30 13:43:37;;;;;;;;;;;;;;;;;;5073045;28;20692;-76
2022/05/30 13:46:03;;;;;;;;;;;;;;;;;;5086123;28;19927;-74
2022/05/30 13:48:29;;;;;;;;;;;;;;;;;;5109674;28;20003;-75
2022/05/30 13:50:55;;;;;;;;;;;;;;;;;;5108154;27;20421;-75
2022/05/30 13:53:21;;;;;;;;;;;;;;;;;;5108216;28;19927;-75
2022/05/30 13:55:47;;;;;;;;;;;;;;;;;;5104863;27;19924;-75
2022/05/30 13:58:13;;;;;;;;;;;;;;;;;;5091175;27;20344;-75
2022/05/30 14:00:39;;;;;;;;;;;;;;;;;;5086917;28;19928;-75
2022/05/30 14:03:05;;;;;;;;;;;;;;;;;;5088112;28;19928;-74
2022/05/30 14:05:31;;;;;;;;;;;;;;;;;;5105036;27;19937;-73
2022/05/30 14:07:57;;;;;;;;;;;;;;;;;;5087913;28;19924;-73
2022/05/30 14:10:23;;;;;;;;;;;;;;;;;;5104306;27;19966;-73
2022/05/30 14:12:49;;;;;;;;;;;;;;;;;;5106847;27;19966;-74
2022/05/30 14:15:16;;;;;;;;;;;;;;;;;;5093586;27;19924;-77
2022/05/30 14:17:41;;;;;;;;;;;;;;;;;;5108022;27;19928;-75
2022/05/30 14:20:11;;;;;;;;;;;;;;;;;;5107861;27;19927;-75
2022/05/30 14:22:37;;;;;;;;;;;;;;;;;;5107814;28;20404;-74
2022/05/30 14:25:04;;;;;;;;;;;;;;;;;;5109000;28;20011;-74
2022/05/30 14:27:30;;;;;;;;;;;;;;;;;;5109284;28;20324;-74
2022/05/30 14:29:56;;;;;;;;;;;;;;;;;;5090563;28;19924;-75
2022/05/30 14:32:22;;;;;;;;;;;;;;;;;;5106805;27;20378;-75
2022/05/30 14:34:48;;;;;;;;;;;;;;;;;;5107008;28;19927;-74
2022/05/30 14:37:14;;;;;;;;;;;;;;;;;;5106119;28;19924;-74
2022/05/30 14:39:40;;;;;;;;;;;;;;;;;;5109452;28;20454;-74
2022/05/30 14:42:06;;;;;;;;;;;;;;;;;;5104287;27;20504;-74
2022/05/30 14:44:32;;;;;;;;;;;;;;;;;;5109962;27;19927;-75
2022/05/30 14:46:58;;;;;;;;;;;;;;;;;;5109653;27;19927;-77
2022/05/30 14:49:24;;;;;;;;;;;;;;;;;;5105320;27;20050;-79
2022/05/30 14:51:50;;;;;;;;;;;;;;;;;;5080923;28;19931;-76
2022/05/30 14:54:16;;;;;;;;;;;;;;;;;;5109040;28;19928;-75
2022/05/30 14:56:42;;;;;;;;;;;;;;;;;;5109259;28;20335;-76
2022/05/30 14:59:08;;;;;;;;;;;;;;;;;;5109400;28;20001;-75
2022/05/30 15:01:34;;;;;;;;;;;;;;;;;;5088550;28;19962;-76
2022/05/30 15:04:09;;;;;;;;;;;;;;;;;;5088062;28;19970;-77
2022/05/30 15:06:35;;;;;;;;;;;;;;;;;;5089607;28;19924;-76
2022/05/30 15:09:01;;;;;;;;;;;;;;;;;;5107834;28;19931;-75
2022/05/30 15:11:27;;;;;;;;;;;;;;;;;;5091113;28;19923;-75
2022/05/30 15:13:53;;;;;;;;;;;;;;;;;;5107987;28;19969;-76
2022/05/30 15:16:19;;;;;;;;;;;;;;;;;;5105180;28;19939;-82
2022/05/30 15:18:45;;;;;;;;;;;;;;;;;;5091227;28;19971;-75
2022/05/30 15:21:11;;;;;;;;;;;;;;;;;;5086298;28;20011;-78
2022/05/30 15:23:37;;;;;;;;;;;;;;;;;;5107493;28;19935;-79
2022/05/30 15:26:03;;;;;;;;;;;;;;;;;;5078752;28;19938;-80
2022/05/30 15:28:29;;;;;;;;;;;;;;;;;;5124200;27;19967;-80
2022/05/30 15:30:55;;;;;;;;;;;;;;;;;;5094571;28;19970;-81
2022/05/30 15:33:21;;;;;;;;;;;;;;;;;;5091612;28;19928;-81
2022/05/30 15:35:47;;;;;;;;;;;;;;;;;;5091753;27;20235;-81
2022/05/30 15:38:13;;;;;;;;;;;;;;;;;;5109359;27;19924;-80
2022/05/30 15:40:39;;;;;;;;;;;;;;;;;;5090076;28;19927;-81
2022/05/30 15:43:05;;;;;;;;;;;;;;;;;;5094568;28;20276;-80
2022/05/30 15:45:31;;;;;;;;;;;;;;;;;;5094017;28;20023;-80
2022/05/30 15:47:57;;;;;;;;;;;;;;;;;;5111386;28;19927;-80
2022/05/30 15:50:23;;;;;;;;;;;;;;;;;;5094146;28;19924;-84
2022/05/30 15:58:18;;;;;;;;;;;;;;;;;;5093610;28;20011;-79
2022/05/30 16:00:44;;;;;;;;;;;;;;;;;;5113655;28;20018;-79
2022/05/30 16:03:10;;;;;;;;;;;;;;;;;;5090913;28;19928;-77
2022/05/30 16:05:36;;;;;;;;;;;;;;;;;;5125333;27;20014;-78
2022/05/30 16:08:02;;;;;;;;;;;;;;;;;;5108945;27;20069;-77
2022/05/30 16:10:28;;;;;;;;;;;;;;;;;;5095390;28;19928;-76
2022/05/30 16:12:54;;;;;;;;;;;;;;;;;;5107641;28;19928;-77
2022/05/30 16:15:20;;;;;;;;;;;;;;;;;;5091866;28;19927;-77
2022/05/30 16:17:46;;;;;;;;;;;;;;;;;;5108482;28;19928;-77
2022/05/30 16:20:12;;;;;;;;;;;;;;;;;;5092382;28;20042;-79
2022/05/30 16:22:38;;;;;;;;;;;;;;;;;;5112591;27;19931;-81
2022/05/30 16:25:04;;;;;;;;;;;;;;;;;;5107816;27;19924;-79
2022/05/30 16:27:30;;;;;;;;;;;;;;;;;;5110712;27;20022;-80